AAL735 EGLL-KCLT
Flight info
| Callsign | AAL735 |
|---|---|
| Flight time | N/A |
| Altitude | 34000 |
| Route | CPT L9 DIDZA N14 OKTAD DCT MEDOG DCT VATRY DCT TORLU DCT DOGAL/M082F340 DCT 54N020W 54N030W 5330N04000W 5230N05000W DCT SAXAN/N0471F340 N554A MIILS DCT KAYCC DCT KYLOH DCT NELIE Q75 GVE DCT AIROW CHSLY6 |
| Aircraft | B772/H-SDE2E3FGHIJ5LORVWXY/LB1D1 |
Departure
| Time | N/A |
|---|---|
| Airport | London Heathrow Airport (EGLL) |
Arrival
| Time | 2026-05-06 00:14 |
|---|---|
| Airport | Charlotte Douglas International Airport (KCLT) |
| Time | Latitude | Longitude | Altitude | Speed | Heading |
|---|---|---|---|---|---|
| 2026-05-05 23:55 | 36.32295 | -80.01709 | 24662 ft | 420 kts | 219° |
| 2026-05-05 23:56 | 36.29861 | -80.03720 | 24296 ft | 421 kts | 219° |
| 2026-05-05 23:56 | 36.27432 | -80.05723 | 23994 ft | 420 kts | 219° |
| 2026-05-05 23:56 | 36.25004 | -80.07722 | 23758 ft | 417 kts | 219° |
| 2026-05-05 23:56 | 36.22594 | -80.09705 | 23516 ft | 415 kts | 219° |
| 2026-05-05 23:57 | 36.20181 | -80.11689 | 23219 ft | 413 kts | 219° |
| 2026-05-05 23:57 | 36.17793 | -80.13653 | 22943 ft | 411 kts | 219° |
| 2026-05-05 23:57 | 36.15444 | -80.15583 | 22670 ft | 409 kts | 219° |
| 2026-05-05 23:57 | 36.13078 | -80.17526 | 22420 ft | 407 kts | 219° |
| 2026-05-05 23:58 | 36.10695 | -80.19480 | 22192 ft | 404 kts | 219° |
| 2026-05-05 23:58 | 36.08395 | -80.21368 | 21898 ft | 402 kts | 219° |
| 2026-05-05 23:58 | 36.06071 | -80.23275 | 21670 ft | 400 kts | 219° |
| 2026-05-05 23:58 | 36.03784 | -80.25147 | 21468 ft | 390 kts | 219° |
| 2026-05-05 23:59 | 36.01520 | -80.27001 | 20715 ft | 392 kts | 219° |
| 2026-05-05 23:59 | 35.99240 | -80.28868 | 19883 ft | 390 kts | 218° |
| 2026-05-05 23:59 | 35.97022 | -80.30676 | 19029 ft | 371 kts | 218° |
| 2026-05-05 23:59 | 35.94923 | -80.32383 | 18215 ft | 353 kts | 219° |
| 2026-05-06 00:00 | 35.92908 | -80.34030 | 17300 ft | 342 kts | 219° |
| 2026-05-06 00:00 | 35.90941 | -80.35640 | 16431 ft | 341 kts | 218° |
| 2026-05-06 00:00 | 35.88963 | -80.37258 | 15629 ft | 340 kts | 218° |
| 2026-05-06 00:00 | 35.87017 | -80.38843 | 14867 ft | 332 kts | 218° |
| 2026-05-06 00:01 | 35.85107 | -80.40395 | 14127 ft | 326 kts | 218° |
| 2026-05-06 00:01 | 35.83233 | -80.41921 | 13292 ft | 320 kts | 218° |
| 2026-05-06 00:01 | 35.81460 | -80.43538 | 12453 ft | 313 kts | 222° |
| 2026-05-06 00:01 | 35.79772 | -80.45207 | 11642 ft | 309 kts | 222° |
| 2026-05-06 00:02 | 35.78107 | -80.46846 | 10841 ft | 305 kts | 221° |
| 2026-05-06 00:02 | 35.76451 | -80.48456 | 10062 ft | 301 kts | 221° |
| 2026-05-06 00:02 | 35.74808 | -80.49974 | 9246 ft | 299 kts | 213° |
| 2026-05-06 00:02 | 35.72894 | -80.50940 | 8403 ft | 298 kts | 198° |
| 2026-05-06 00:03 | 35.70921 | -80.51620 | 7814 ft | 286 kts | 198° |
| 2026-05-06 00:03 | 35.69113 | -80.52285 | 7903 ft | 260 kts | 199° |
| 2026-05-06 00:03 | 35.67406 | -80.52929 | 7935 ft | 254 kts | 199° |
| 2026-05-06 00:03 | 35.65705 | -80.53580 | 7986 ft | 256 kts | 199° |
| 2026-05-06 00:04 | 35.64116 | -80.54481 | 7953 ft | 251 kts | 219° |
| 2026-05-06 00:04 | 35.62876 | -80.56007 | 7626 ft | 256 kts | 229° |
| 2026-05-06 00:04 | 35.61745 | -80.57730 | 7144 ft | 261 kts | 231° |
| 2026-05-06 00:04 | 35.60632 | -80.59518 | 6666 ft | 265 kts | 231° |
| 2026-05-06 00:05 | 35.58510 | -80.63082 | 6030 ft | 239 kts | 232° |
| 2026-05-06 00:05 | 35.57565 | -80.64701 | 5634 ft | 231 kts | 232° |
| 2026-05-06 00:05 | 35.56639 | -80.66294 | 5128 ft | 227 kts | 231° |
| 2026-05-06 00:06 | 35.55747 | -80.67837 | 4726 ft | 223 kts | 232° |
| 2026-05-06 00:06 | 35.54848 | -80.69397 | 4240 ft | 225 kts | 232° |
| 2026-05-06 00:06 | 35.53942 | -80.70967 | 3773 ft | 225 kts | 232° |
| 2026-05-06 00:06 | 35.53059 | -80.72504 | 3285 ft | 224 kts | 232° |
| 2026-05-06 00:07 | 35.52166 | -80.74080 | 3144 ft | 225 kts | 231° |
| 2026-05-06 00:07 | 35.51288 | -80.75649 | 3032 ft | 225 kts | 232° |
| 2026-05-06 00:07 | 35.50462 | -80.77118 | 3033 ft | 224 kts | 232° |
| 2026-05-06 00:07 | 35.49589 | -80.78683 | 3023 ft | 223 kts | 232° |
| 2026-05-06 00:08 | 35.48702 | -80.80236 | 3030 ft | 222 kts | 230° |
| 2026-05-06 00:08 | 35.47706 | -80.81673 | 3038 ft | 221 kts | 225° |
| 2026-05-06 00:08 | 35.46667 | -80.83042 | 3026 ft | 222 kts | 225° |
| 2026-05-06 00:08 | 35.45609 | -80.84393 | 3037 ft | 223 kts | 224° |
| 2026-05-06 00:09 | 35.44532 | -80.85764 | 3017 ft | 223 kts | 224° |
| 2026-05-06 00:09 | 35.43459 | -80.87126 | 3021 ft | 221 kts | 224° |
| 2026-05-06 00:09 | 35.42395 | -80.88480 | 3015 ft | 220 kts | 224° |
| 2026-05-06 00:09 | 35.41319 | -80.89798 | 3019 ft | 218 kts | 220° |
| 2026-05-06 00:10 | 35.40141 | -80.90959 | 3027 ft | 219 kts | 214° |
| 2026-05-06 00:10 | 35.38910 | -80.91978 | 3014 ft | 207 kts | 212° |
| 2026-05-06 00:10 | 35.37749 | -80.92933 | 3015 ft | 195 kts | 212° |
| 2026-05-06 00:10 | 35.36591 | -80.93846 | 3004 ft | 197 kts | 210° |
| 2026-05-06 00:11 | 35.35462 | -80.94661 | 2992 ft | 180 kts | 208° |
| 2026-05-06 00:11 | 35.34358 | -80.95206 | 2998 ft | 169 kts | 188° |
| 2026-05-06 00:11 | 35.33145 | -80.95233 | 2998 ft | 178 kts | 174° |
| 2026-05-06 00:11 | 35.31963 | -80.94837 | 2939 ft | 175 kts | 165° |
| 2026-05-06 00:12 | 35.30825 | -80.94386 | 2638 ft | 171 kts | 168° |
| 2026-05-06 00:12 | 35.29663 | -80.94186 | 2263 ft | 171 kts | 180° |
| 2026-05-06 00:12 | 35.28524 | -80.94122 | 2148 ft | 154 kts | 180° |
| 2026-05-06 00:12 | 35.27473 | -80.94072 | 1893 ft | 152 kts | 181° |
| 2026-05-06 00:13 | 35.26483 | -80.93975 | 1714 ft | 134 kts | 173° |
| 2026-05-06 00:13 | 35.25573 | -80.93846 | 1445 ft | 129 kts | 176° |
| 2026-05-06 00:13 | 35.24710 | -80.93776 | 1229 ft | 123 kts | 179° |
| 2026-05-06 00:13 | 35.23833 | -80.93720 | 1049 ft | 129 kts | 180° |
| 2026-05-06 00:14 | 35.22919 | -80.93668 | 879 ft | 129 kts | 178° |
| 2026-05-06 00:14 | 35.22047 | -80.93579 | 740 ft | 121 kts | 179° |
| 2026-05-06 00:14 | 35.21339 | -80.93521 | 738 ft | 76 kts | 176° |
| 2026-05-06 00:14 | 35.20948 | -80.93486 | 738 ft | 43 kts | 176° |
| 2026-05-06 00:15 | 35.20823 | -80.93476 | 738 ft | 14 kts | 176° |
| 2026-05-06 00:15 | 35.20774 | -80.93532 | 739 ft | 11 kts | 258° |
| 2026-05-06 00:15 | 35.20797 | -80.93608 | 737 ft | 11 kts | 347° |
| 2026-05-06 00:15 | 35.20874 | -80.93617 | 737 ft | 11 kts | 355° |
| 2026-05-06 00:16 | 35.20951 | -80.93624 | 737 ft | 11 kts | 356° |
| 2026-05-06 00:16 | 35.21028 | -80.93631 | 737 ft | 11 kts | 356° |
| 2026-05-06 00:16 | 35.21105 | -80.93638 | 737 ft | 11 kts | 355° |
| 2026-05-06 00:16 | 35.21182 | -80.93645 | 737 ft | 11 kts | 355° |
| 2026-05-06 00:17 | 35.21258 | -80.93651 | 737 ft | 11 kts | 356° |
| 2026-05-06 00:17 | 35.21336 | -80.93656 | 737 ft | 13 kts | 356° |
| 2026-05-06 00:17 | 35.21433 | -80.93663 | 737 ft | 14 kts | 356° |
| 2026-05-06 00:17 | 35.21530 | -80.93674 | 737 ft | 14 kts | 349° |
| 2026-05-06 00:18 | 35.21605 | -80.93741 | 737 ft | 14 kts | 312° |
| 2026-05-06 00:18 | 35.21669 | -80.93830 | 737 ft | 14 kts | 310° |
| 2026-05-06 00:18 | 35.21734 | -80.93918 | 736 ft | 14 kts | 314° |
| 2026-05-06 00:18 | 35.21779 | -80.93965 | 736 ft | 6 kts | 332° |
| 2026-05-06 00:19 | 35.21844 | -80.93967 | 737 ft | 11 kts | 20° |
| 2026-05-06 00:19 | 35.21905 | -80.93926 | 737 ft | 5 kts | 35° |
| 2026-05-06 00:19 | 35.21911 | -80.93920 | 737 ft | 1 kts | 36° |
| 2026-05-06 00:19 | 35.21937 | -80.93895 | 737 ft | 9 kts | 38° |
| 2026-05-06 00:20 | 35.21957 | -80.93872 | 737 ft | 1 kts | 48° |
| 2026-05-06 00:20 | 35.21964 | -80.93862 | 737 ft | 2 kts | 49° |
| 2026-05-06 00:20 | 35.21974 | -80.93848 | 737 ft | 2 kts | 51° |
| 2026-05-06 00:20 | 35.21988 | -80.93826 | 737 ft | 5 kts | 51° |
| 2026-05-06 00:21 | 35.22015 | -80.93805 | 736 ft | 5 kts | 15° |
| 2026-05-06 00:21 | 35.22049 | -80.93804 | 737 ft | 5 kts | 0° |
| 2026-05-06 00:21 | 35.22082 | -80.93805 | 737 ft | 5 kts | 357° |
| 2026-05-06 00:21 | 35.22115 | -80.93811 | 737 ft | 5 kts | 343° |
| 2026-05-06 00:22 | 35.22134 | -80.93822 | 737 ft | 1 kts | 331° |
| 2026-05-06 00:22 | 35.22137 | -80.93825 | 737 ft | 1 kts | 328° |
| 2026-05-06 00:22 | 35.22145 | -80.93835 | 737 ft | 2 kts | 309° |
| 2026-05-06 00:22 | 35.22143 | -80.93852 | 737 ft | 2 kts | 249° |
| 2026-05-06 00:23 | 35.22135 | -80.93867 | 737 ft | 2 kts | 237° |
| 2026-05-06 00:23 | 35.22126 | -80.93882 | 737 ft | 2 kts | 231° |
| 2026-05-06 00:23 | 35.22122 | -80.93889 | 737 ft | 2 kts | 231° |
| 2026-05-06 00:23 | 35.22119 | -80.93893 | 737 ft | 0 kts | 230° |
| 2026-05-06 00:24 | 35.22118 | -80.93894 | 737 ft | 0 kts | 230° |